createdAt,value
2023-01-25T00:02:04.246Z,35.80
2023-01-25T00:05:47.922Z,36.60
2023-01-25T00:09:31.399Z,39.30
2023-01-25T00:13:14.984Z,34.30
2023-01-25T00:16:49.826Z,36.70
2023-01-25T00:20:33.216Z,38.00
2023-01-25T00:24:16.526Z,35.50
2023-01-25T00:27:52.800Z,38.30
2023-01-25T00:31:38.966Z,35.30
2023-01-25T00:35:25.085Z,38.40
2023-01-25T00:39:01.672Z,37.30
2023-01-25T00:42:45.124Z,45.50
2023-01-25T00:46:21.547Z,33.70
2023-01-25T00:50:04.835Z,39.40
2023-01-25T00:53:48.549Z,34.70
2023-01-25T00:57:32.186Z,38.90
2023-01-25T01:01:08.517Z,35.00
2023-01-25T01:04:52.119Z,35.30
2023-01-25T01:08:38.041Z,36.00
2023-01-25T01:12:21.658Z,31.80
2023-01-25T01:16:05.494Z,31.90
2023-01-25T01:19:42.850Z,31.00
2023-01-25T01:23:26.552Z,28.40
2023-01-25T01:27:09.991Z,29.00
2023-01-25T01:30:53.882Z,24.10
2023-01-25T01:34:37.380Z,25.30
2023-01-25T01:38:21.100Z,19.80
2023-01-25T01:42:04.734Z,19.30
2023-01-25T01:45:46.381Z,18.70
2023-01-25T01:49:35.954Z,18.60
2023-01-25T01:53:16.776Z,21.60
2023-01-25T01:57:00.275Z,19.20
2023-01-25T02:00:43.810Z,18.60
2023-01-25T02:04:19.877Z,18.90
2023-01-25T02:08:12.162Z,19.20
2023-01-25T02:11:49.723Z,22.20
2023-01-25T02:15:33.043Z,26.90
2023-01-25T02:19:17.393Z,22.00
2023-01-25T02:23:00.854Z,22.00
2023-01-25T02:26:37.481Z,21.10
2023-01-25T02:30:21.028Z,20.30
2023-01-25T02:34:04.630Z,21.40
2023-01-25T02:37:48.069Z,20.10
2023-01-25T02:41:37.361Z,19.20
2023-01-25T02:45:23.647Z,18.60
2023-01-25T02:49:07.737Z,21.70
2023-01-25T02:52:40.360Z,57.40
2023-01-25T02:56:23.824Z,48.80
2023-01-25T03:00:07.219Z,35.30
2023-01-25T03:03:50.804Z,24.50
2023-01-25T03:07:34.360Z,45.30
2023-01-25T03:11:17.940Z,52.70
2023-01-25T03:15:01.542Z,30.90
2023-01-25T03:18:45.028Z,30.10
2023-01-25T03:22:28.900Z,22.20
2023-01-25T03:26:12.287Z,22.00
2023-01-25T03:29:48.660Z,21.30
2023-01-25T03:33:32.146Z,21.70
2023-01-25T03:37:14.305Z,18.50
2023-01-25T03:40:57.781Z,15.20
2023-01-25T03:44:41.381Z,12.60
2023-01-25T03:48:17.964Z,12.40
2023-01-25T03:51:49.994Z,10.90
2023-01-25T03:55:26.581Z,10.90
2023-01-25T03:59:09.861Z,14.00
2023-01-25T04:02:53.305Z,9.30
2023-01-25T04:06:29.909Z,8.80
2023-01-25T04:10:13.333Z,7.90
2023-01-25T04:13:41.796Z,8.30
2023-01-25T04:17:25.257Z,9.30
2023-01-25T04:21:09.135Z,9.50
2023-01-25T04:24:52.508Z,8.00
2023-01-25T04:28:51.351Z,8.90
2023-01-25T04:32:34.901Z,33.70
2023-01-25T04:36:48.868Z,13.50
2023-01-25T04:40:22.825Z,27.00
2023-01-25T04:44:07.909Z,27.70
2023-01-25T04:47:51.559Z,17.70
2023-01-25T04:51:29.940Z,77.90
2023-01-25T04:55:13.648Z,27.20
2023-01-25T04:58:58.166Z,29.60
2023-01-25T05:02:24.493Z,14.70
2023-01-25T05:13:33.803Z,13.00
2023-01-25T05:17:24.451Z,11.70
2023-01-25T05:21:08.045Z,18.00
2023-01-25T05:24:53.034Z,15.10
2023-01-25T05:28:38.176Z,12.00
2023-01-25T05:32:17.581Z,11.00
2023-01-25T05:36:02.656Z,12.30
2023-01-25T05:39:47.454Z,10.50
2023-01-25T05:43:35.399Z,11.80
2023-01-25T05:47:20.471Z,12.20
2023-01-25T05:50:58.214Z,13.90
2023-01-25T05:54:43.107Z,12.00
2023-01-25T05:58:26.470Z,12.20
2023-01-25T06:02:11.625Z,13.30
2023-01-25T06:05:55.611Z,14.30
2023-01-25T06:09:40.517Z,14.00
2023-01-25T06:13:18.299Z,13.90
2023-01-25T06:17:03.024Z,15.70
2023-01-25T06:20:53.905Z,19.10
2023-01-25T06:24:38.742Z,20.10
2023-01-25T06:28:24.103Z,22.70
2023-01-25T06:32:09.424Z,21.00
2023-01-25T06:35:54.865Z,23.90
2023-01-25T06:39:39.906Z,28.00
2023-01-25T06:43:25.140Z,26.80
2023-01-25T06:47:10.244Z,32.90
2023-01-25T06:50:55.237Z,26.60
2023-01-25T06:54:40.151Z,30.00
2023-01-25T06:58:15.498Z,27.70
2023-01-25T07:02:03.518Z,29.00
2023-01-25T07:05:37.470Z,38.00
2023-01-25T07:09:22.807Z,40.90
2023-01-25T07:13:07.900Z,40.50
2023-01-25T07:16:52.907Z,40.40
2023-01-25T07:20:37.641Z,38.80
2023-01-25T07:24:25.769Z,49.60
2023-01-25T07:28:10.795Z,46.40
2023-01-25T07:32:04.978Z,40.70
2023-01-25T07:35:49.899Z,43.20
2023-01-25T07:39:34.955Z,53.90
2023-01-25T07:43:19.860Z,43.60
2023-01-25T07:47:04.601Z,34.30
2023-01-25T07:51:44.036Z,30.00
2023-01-25T07:59:00.405Z,33.70
2023-01-25T08:02:45.205Z,41.50
2023-01-25T08:06:29.796Z,36.10
2023-01-25T08:10:03.098Z,37.50
2023-01-25T08:13:48.395Z,31.00
2023-01-25T08:17:33.534Z,37.90
2023-01-25T08:21:18.683Z,36.10
2023-01-25T08:25:02.302Z,34.30
2023-01-25T08:28:46.813Z,40.80
2023-01-25T08:32:31.640Z,37.20
2023-01-25T08:36:16.464Z,35.40
2023-01-25T08:39:59.838Z,33.10
2023-01-25T08:43:44.773Z,35.20
2023-01-25T08:47:29.549Z,35.50
2023-01-25T08:51:06.966Z,36.70
2023-01-25T08:54:51.819Z,35.40
2023-01-25T08:58:36.804Z,36.60
2023-01-25T09:02:21.713Z,35.50
2023-01-25T09:05:59.245Z,36.00
2023-01-25T09:09:44.061Z,29.00
2023-01-25T09:13:28.935Z,32.70
2023-01-25T09:17:05.869Z,34.30
2023-01-25T09:20:50.967Z,34.10
2023-01-25T09:24:25.026Z,33.30
2023-01-25T09:28:02.206Z,30.90
2023-01-25T09:31:40.442Z,36.10
2023-01-25T09:35:23.855Z,36.10
2023-01-25T09:39:08.852Z,36.70
2023-01-25T09:43:11.544Z,35.40
2023-01-25T09:47:02.472Z,34.50
2023-01-25T09:51:14.332Z,32.20
2023-01-25T09:54:59.346Z,33.70
2023-01-25T09:58:42.960Z,34.50
2023-01-25T10:02:45.801Z,35.50
2023-01-25T10:06:25.684Z,30.80
2023-01-25T10:10:17.768Z,31.10
2023-01-25T10:14:02.680Z,33.80
2023-01-25T10:17:47.226Z,36.90
2023-01-25T10:21:31.917Z,36.30
2023-01-25T10:25:15.307Z,32.50
2023-01-25T10:29:01.769Z,38.10
2023-01-25T10:32:55.915Z,35.90
2023-01-25T10:36:41.217Z,35.60
2023-01-25T10:40:36.719Z,38.00
2023-01-25T10:44:21.563Z,39.40
2023-01-25T10:48:15.491Z,36.10
2023-01-25T10:52:09.270Z,41.30
2023-01-25T10:56:03.505Z,41.00
2023-01-25T10:59:56.967Z,36.80
2023-01-25T11:03:41.946Z,40.80
2023-01-25T11:07:29.888Z,43.10
2023-01-25T11:11:32.871Z,37.80
2023-01-25T11:18:46.506Z,43.90
2023-01-25T11:22:24.734Z,39.30
2023-01-25T11:26:27.769Z,40.60
2023-01-25T11:30:08.456Z,39.10
2023-01-25T11:33:35.058Z,46.60
2023-01-25T11:37:34.509Z,42.30
2023-01-25T11:41:31.194Z,45.90
2023-01-25T11:45:25.321Z,55.20
2023-01-25T11:49:31.411Z,50.50
2023-01-25T11:53:28.592Z,47.40
2023-01-25T11:57:23.235Z,47.30
2023-01-25T12:01:24.728Z,48.10
2023-01-25T12:05:30.881Z,48.30
2023-01-25T12:09:21.710Z,45.60
2023-01-25T12:13:06.523Z,52.10
2023-01-25T12:16:51.594Z,50.30
2023-01-25T12:20:54.515Z,52.10
2023-01-25T12:24:51.158Z,48.10
2023-01-25T12:28:38.730Z,47.00
2023-01-25T12:32:38.637Z,48.60
2023-01-25T12:36:13.754Z,46.20
2023-01-25T12:39:58.612Z,51.40
2023-01-25T12:43:46.028Z,48.20
2023-01-25T12:47:36.453Z,51.60
2023-01-25T12:51:21.370Z,46.50
2023-01-25T12:55:01.303Z,43.50
2023-01-25T12:58:49.076Z,48.80
2023-01-25T13:02:48.648Z,52.80
2023-01-25T13:06:34.570Z,51.40
2023-01-25T13:10:43.926Z,45.80
2023-01-25T13:14:31.358Z,48.60
2023-01-25T13:18:23.369Z,45.00
2023-01-25T13:22:17.114Z,44.30
2023-01-25T13:26:05.195Z,38.10
2023-01-25T13:34:24.504Z,41.30
2023-01-25T13:38:21.767Z,41.80
2023-01-25T13:42:03.880Z,72.50
2023-01-25T13:45:48.942Z,113.50
2023-01-25T13:49:33.937Z,54.90
2023-01-25T13:53:18.821Z,44.10
2023-01-25T13:57:07.725Z,44.80
2023-01-25T14:01:01.895Z,49.60
2023-01-25T14:04:48.187Z,49.90
2023-01-25T14:08:35.720Z,48.10
2023-01-25T14:12:20.570Z,54.20
2023-01-25T14:16:10.579Z,49.70
2023-01-25T14:20:07.197Z,58.00
2023-01-25T14:23:58.196Z,78.80
2023-01-25T14:31:07.832Z,53.00
2023-01-25T14:34:24.334Z,47.70
2023-01-25T14:38:15.266Z,54.60
2023-01-25T14:45:21.295Z,50.00
2023-01-25T14:49:21.850Z,54.10
2023-01-25T14:53:06.629Z,59.20
2023-01-25T14:56:49.981Z,50.00
2023-01-25T15:00:34.933Z,57.40
2023-01-25T15:04:20.024Z,58.90
2023-01-25T15:08:03.150Z,61.90
2023-01-25T15:12:06.154Z,49.50
2023-01-25T15:16:00.320Z,53.50
2023-01-25T15:19:44.522Z,52.70
2023-01-25T15:23:22.178Z,49.30
2023-01-25T15:27:07.513Z,63.90
2023-01-25T15:30:45.412Z,52.60
2023-01-25T15:34:30.389Z,51.90
2023-01-25T15:38:08.785Z,64.50
2023-01-25T15:41:46.421Z,51.60
2023-01-25T15:45:31.278Z,49.60
2023-01-25T15:49:16.252Z,46.70
2023-01-25T15:53:01.307Z,49.70
2023-01-25T15:56:31.630Z,53.20
2023-01-25T16:00:16.583Z,51.10
2023-01-25T16:04:01.529Z,54.00
2023-01-25T16:07:46.476Z,52.40
2023-01-25T16:11:25.062Z,54.40
2023-01-25T16:15:10.363Z,53.80
2023-01-25T16:18:46.857Z,58.30
2023-01-25T16:22:31.781Z,53.50
2023-01-25T16:26:16.731Z,47.90
2023-01-25T16:30:01.679Z,55.20
2023-01-25T16:33:39.181Z,57.90
2023-01-25T16:37:02.661Z,49.70
2023-01-25T16:40:33.994Z,56.80
2023-01-25T16:44:19.075Z,58.90
2023-01-25T16:48:04.206Z,59.80
2023-01-25T16:51:58.117Z,69.60
2023-01-25T16:55:43.343Z,59.00
2023-01-25T16:59:28.588Z,50.50
2023-01-25T17:03:13.683Z,72.40
2023-01-25T17:07:01.373Z,85.70
2023-01-25T17:10:46.196Z,63.90
2023-01-25T17:14:31.316Z,56.70
2023-01-25T17:18:17.028Z,53.00
2023-01-25T17:21:56.055Z,53.50
2023-01-25T17:25:41.546Z,54.40
2023-01-25T17:29:26.709Z,45.70
2023-01-25T17:33:11.358Z,55.50
2023-01-25T17:36:56.447Z,75.40
2023-01-25T17:40:29.917Z,55.90
2023-01-25T17:44:14.893Z,76.80
2023-01-25T17:47:59.800Z,74.80
2023-01-25T17:51:44.945Z,58.50
2023-01-25T17:55:30.052Z,105.70
2023-01-25T17:59:08.793Z,54.00
2023-01-25T18:02:54.060Z,76.10
2023-01-25T18:06:39.437Z,51.60
2023-01-25T18:10:24.829Z,83.50
2023-01-25T18:14:02.630Z,50.00
2023-01-25T18:17:48.044Z,48.50
2023-01-25T18:21:25.822Z,48.40
2023-01-25T18:25:11.822Z,44.60
2023-01-25T18:28:40.767Z,48.80
2023-01-25T18:32:26.984Z,51.70
2023-01-25T18:36:13.084Z,52.10
2023-01-25T18:39:58.495Z,49.50
2023-01-25T18:43:43.975Z,49.90
2023-01-25T18:47:29.390Z,53.60
2023-01-25T18:51:14.153Z,55.10
2023-01-25T18:54:52.490Z,56.80
2023-01-25T18:58:37.609Z,62.80
2023-01-25T19:02:24.185Z,55.40
2023-01-25T19:06:09.377Z,52.50
2023-01-25T19:09:54.438Z,56.70
2023-01-25T19:13:32.878Z,63.10
2023-01-25T19:17:19.795Z,55.10
2023-01-25T19:21:05.411Z,49.60
2023-01-25T19:24:31.295Z,52.30
2023-01-25T19:28:16.830Z,53.30
2023-01-25T19:32:07.490Z,50.50
2023-01-25T19:35:52.600Z,54.00
2023-01-25T19:39:40.377Z,49.40
2023-01-25T19:43:24.123Z,55.00
2023-01-25T19:47:18.044Z,52.30
2023-01-25T19:51:03.458Z,54.30
2023-01-25T19:54:48.720Z,54.50
2023-01-25T19:58:33.688Z,50.70
2023-01-25T20:02:20.959Z,59.80
2023-01-25T20:06:06.415Z,56.00
2023-01-25T20:09:55.797Z,55.60
2023-01-25T20:13:41.347Z,57.40
2023-01-25T20:17:26.605Z,54.40
2023-01-25T20:21:10.579Z,56.30
2023-01-25T20:24:54.161Z,57.20
2023-01-25T20:28:38.049Z,59.00
2023-01-25T20:32:32.370Z,53.40
2023-01-25T20:36:16.804Z,58.50
2023-01-25T20:39:55.783Z,55.80
2023-01-25T20:43:20.878Z,57.80
2023-01-25T20:47:06.103Z,55.30
2023-01-25T20:50:51.744Z,58.90
2023-01-25T20:54:37.237Z,57.20
2023-01-25T20:58:22.400Z,52.80
2023-01-25T21:02:16.941Z,56.20
2023-01-25T21:05:54.856Z,59.00
2023-01-25T21:09:29.727Z,59.90
2023-01-25T21:12:57.856Z,71.30
2023-01-25T21:16:43.812Z,60.50
2023-01-25T21:20:28.975Z,53.90
2023-01-25T21:24:14.062Z,53.00
2023-01-25T21:27:58.760Z,54.50
2023-01-25T21:31:32.607Z,53.00
2023-01-25T21:35:17.579Z,54.70
2023-01-25T21:39:02.434Z,53.30
2023-01-25T21:42:47.183Z,50.70
2023-01-25T21:46:34.916Z,57.30
2023-01-25T21:53:36.011Z,57.10
2023-01-25T21:57:20.839Z,60.00
2023-01-25T22:01:05.784Z,62.20
2023-01-25T22:04:40.084Z,62.60
2023-01-25T22:08:25.003Z,57.80
2023-01-25T22:12:08.960Z,55.40
2023-01-25T22:15:54.002Z,58.00
2023-01-25T22:19:34.104Z,59.70
2023-01-25T22:23:07.611Z,55.20
2023-01-25T22:26:52.368Z,59.90
2023-01-25T22:30:26.298Z,56.50
2023-01-25T22:34:02.645Z,56.40
2023-01-25T22:37:49.013Z,57.00
2023-01-25T22:41:34.304Z,58.90
2023-01-25T22:45:19.180Z,56.20
2023-01-25T22:48:54.074Z,59.50
2023-01-25T22:52:39.170Z,59.40
2023-01-25T22:56:14.506Z,58.00
2023-01-25T22:59:59.688Z,59.70
2023-01-25T23:03:44.636Z,61.80
2023-01-25T23:07:35.431Z,61.20
2023-01-25T23:11:01.734Z,63.80
2023-01-25T23:14:45.187Z,58.70
2023-01-25T23:18:28.733Z,61.90
2023-01-25T23:22:07.882Z,64.30
2023-01-25T23:25:51.796Z,65.70
2023-01-25T23:29:26.074Z,61.60
2023-01-25T23:33:11.111Z,63.00
2023-01-25T23:36:54.748Z,63.60
2023-01-25T23:40:39.774Z,57.40
2023-01-25T23:44:13.484Z,61.10
2023-01-25T23:47:58.337Z,65.30
2023-01-25T23:51:43.678Z,64.60
2023-01-25T23:55:21.525Z,64.60
2023-01-25T23:58:55.726Z,68.50
